Time,TemperatureF,DewpointF,PressureIn,WindDirection,WindDirectionDegrees,WindSpeedMPH,WindSpeedGustMPH,Humidity,HourlyPrecipIn,Conditions,Clouds,dailyrainin,SoftwareType,DateUTC
2013-07-15 00:03:00,66.4,64.3,30.01,NW,315,1.6,-999.0,93,-99.99,,,0.00,Acu-Link.com,2013-07-15 06:03:00,
2013-07-15 00:18:00,66.4,64.0,30.02,South,180,2.2,-999.0,92,-99.99,,,0.00,Acu-Link.com,2013-07-15 06:18:00,
2013-07-15 00:33:00,66.4,64.3,30.01,SSW,202,1.6,-999.0,93,-99.99,,,0.00,Acu-Link.com,2013-07-15 06:33:00,
2013-07-15 00:48:00,66.2,64.7,30.00,ESE,112,2.2,-999.0,95,-99.99,,,0.00,Acu-Link.com,2013-07-15 06:48:00,
2013-07-15 01:04:00,65.8,65.0,30.01,ENE,67,1.6,-999.0,97,-99.99,,,0.00,Acu-Link.com,2013-07-15 07:04:00,
2013-07-15 01:19:00,65.7,64.8,30.00,SW,225,0.0,-999.0,97,-99.99,,,0.00,Acu-Link.com,2013-07-15 07:19:00,
2013-07-15 01:34:00,65.8,64.7,30.00,West,270,0.0,-999.0,96,-99.99,,,0.00,Acu-Link.com,2013-07-15 07:34:00,
2013-07-15 01:49:00,65.7,64.8,29.99,West,270,2.7,-999.0,97,-99.99,,,0.00,Acu-Link.com,2013-07-15 07:49:00,
2013-07-15 02:05:00,66.4,64.9,29.99,WNW,292,3.1,-999.0,95,-99.99,,,0.00,Acu-Link.com,2013-07-15 08:05:00,
2013-07-15 02:20:00,66.6,64.8,29.99,NNW,337,4.3,-999.0,94,-99.99,,,0.00,Acu-Link.com,2013-07-15 08:20:00,
2013-07-15 02:35:00,66.7,64.0,29.99,NNW,337,5.1,-999.0,91,-99.99,,,0.00,Acu-Link.com,2013-07-15 08:35:00,
2013-07-15 02:50:00,66.7,65.0,29.98,ENE,67,2.2,-999.0,94,-99.99,,,0.00,Acu-Link.com,2013-07-15 08:50:00,
2013-07-15 03:06:00,66.2,64.4,29.97,East,90,4.7,-999.0,94,-99.99,,,0.00,Acu-Link.com,2013-07-15 09:06:00,
2013-07-15 03:21:00,66.4,64.3,29.97,ENE,67,5.1,-999.0,93,-99.99,,,0.00,Acu-Link.com,2013-07-15 09:21:00,
2013-07-15 03:36:00,66.6,64.5,29.96,NNW,337,4.7,-999.0,93,-99.99,,,0.00,Acu-Link.com,2013-07-15 09:36:00,
2013-07-15 03:51:00,66.9,63.9,29.96,North,0,3.8,-999.0,90,-99.99,,,0.00,Acu-Link.com,2013-07-15 09:51:00,
2013-07-15 04:06:00,67.1,63.7,29.95,East,90,2.2,-999.0,89,-99.99,,,0.00,Acu-Link.com,2013-07-15 10:06:00,
2013-07-15 04:21:00,66.7,64.0,29.95,NE,45,3.8,-999.0,91,-99.99,,,0.00,Acu-Link.com,2013-07-15 10:21:00,
2013-07-15 04:37:00,66.2,64.1,29.94,ESE,112,1.1,-999.0,93,-99.99,,,0.00,Acu-Link.com,2013-07-15 10:37:00,
2013-07-15 04:52:00,66.0,64.2,29.94,NE,45,4.3,-999.0,94,-99.99,,,0.00,Acu-Link.com,2013-07-15 10:52:00,
2013-07-15 05:07:00,66.0,64.2,29.94,NNE,22,2.2,-999.0,94,-99.99,,,0.00,Acu-Link.com,2013-07-15 11:07:00,
2013-07-15 05:22:00,66.6,63.8,29.94,NW,315,5.8,-999.0,91,-99.99,,,0.00,Acu-Link.com,2013-07-15 11:22:00,
2013-07-15 05:37:00,66.9,63.6,29.94,WNW,292,1.6,-999.0,89,-99.99,,,0.00,Acu-Link.com,2013-07-15 11:37:00,
2013-07-15 05:53:00,67.1,63.1,29.94,WNW,292,2.7,-999.0,87,-99.99,,,0.00,Acu-Link.com,2013-07-15 11:53:00,
2013-07-15 06:08:00,67.1,63.4,29.93,North,0,4.3,-999.0,88,-99.99,,,0.00,Acu-Link.com,2013-07-15 12:08:00,
2013-07-15 06:23:00,67.3,63.6,29.93,NNW,337,4.7,-999.0,88,-99.99,,,0.00,Acu-Link.com,2013-07-15 12:23:00,
2013-07-15 06:38:00,67.6,63.6,29.93,WNW,292,4.3,-999.0,87,-99.99,,,0.00,Acu-Link.com,2013-07-15 12:38:00,
2013-07-15 06:54:00,68.2,63.8,29.93,NNW,337,2.7,-999.0,86,-99.99,,,0.00,Acu-Link.com,2013-07-15 12:54:00,
2013-07-15 07:09:00,68.9,62.8,29.93,NE,45,4.3,-999.0,81,-99.99,,,0.00,Acu-Link.com,2013-07-15 13:09:00,
2013-07-15 07:24:00,69.4,63.0,29.94,SSE,157,1.6,-999.0,80,-99.99,,,0.00,Acu-Link.com,2013-07-15 13:24:00,
2013-07-15 07:39:00,69.8,64.4,29.94,SE,135,1.6,-999.0,83,-99.99,,,0.00,Acu-Link.com,2013-07-15 13:39:00,
2013-07-15 07:54:00,70.7,64.6,29.96,South,180,3.1,-999.0,81,-99.99,,,0.00,Acu-Link.com,2013-07-15 13:54:00,
2013-07-15 08:09:00,72.3,63.9,29.95,WSW,247,1.1,-999.0,75,-99.99,,,0.00,Acu-Link.com,2013-07-15 14:09:00,
2013-07-15 08:25:00,73.4,63.8,29.95,West,270,2.7,-999.0,72,-99.99,,,0.00,Acu-Link.com,2013-07-15 14:25:00,
2013-07-15 08:40:00,74.1,62.9,29.96,WSW,247,1.6,-999.0,68,-99.99,,,0.00,Acu-Link.com,2013-07-15 14:40:00,
2013-07-15 08:55:00,75.0,63.3,29.97,WSW,247,2.7,-999.0,67,-99.99,,,0.00,Acu-Link.com,2013-07-15 14:55:00,
2013-07-15 09:10:00,76.3,62.3,29.97,SSW,202,1.1,-999.0,62,-99.99,,,0.00,Acu-Link.com,2013-07-15 15:10:00,
2013-07-15 09:26:00,72.0,59.5,29.97,ESE,112,4.7,-999.0,65,-99.99,,,0.00,Acu-Link.com,2013-07-15 15:26:00,
2013-07-15 09:41:00,70.3,58.4,29.99,South,180,8.9,-999.0,66,-99.99,,,0.00,Acu-Link.com,2013-07-15 15:41:00,
2013-07-15 09:56:00,69.8,57.9,29.99,East,90,5.8,-999.0,66,-99.99,,,0.00,Acu-Link.com,2013-07-15 15:56:00,
2013-07-15 10:11:00,69.8,58.3,29.99,ESE,112,5.1,-999.0,67,-99.99,,,0.00,Acu-Link.com,2013-07-15 16:11:00,
2013-07-15 10:26:00,70.5,58.2,30.00,ESE,112,9.8,-999.0,65,-99.99,,,0.00,Acu-Link.com,2013-07-15 16:26:00,
2013-07-15 10:42:00,70.5,57.3,30.01,ESE,112,7.8,-999.0,63,-99.99,,,0.00,Acu-Link.com,2013-07-15 16:42:00,
2013-07-15 10:57:00,70.0,57.2,30.01,East,90,11.9,-999.0,64,-99.99,,,0.00,Acu-Link.com,2013-07-15 16:57:00,
2013-07-15 11:12:00,70.3,57.6,30.01,ESE,112,9.8,-999.0,64,-99.99,,,0.00,Acu-Link.com,2013-07-15 17:12:00,
2013-07-15 11:27:00,70.0,57.2,30.01,SSE,157,10.3,-999.0,64,-99.99,,,0.00,Acu-Link.com,2013-07-15 17:27:00,
2013-07-15 11:42:00,70.0,57.2,30.01,East,90,5.8,-999.0,64,-99.99,,,0.00,Acu-Link.com,2013-07-15 17:42:00,
2013-07-15 11:58:00,70.0,57.7,30.00,South,180,6.3,-999.0,65,-99.99,,,0.00,Acu-Link.com,2013-07-15 17:58:00,
2013-07-15 12:13:00,71.4,57.7,30.01,South,180,6.7,-999.0,62,-99.99,,,0.00,Acu-Link.com,2013-07-15 18:13:00,
2013-07-15 12:28:00,72.5,57.8,30.01,NE,45,10.3,-999.0,60,-99.99,,,0.00,Acu-Link.com,2013-07-15 18:28:00,
2013-07-15 12:43:00,72.0,57.8,30.01,South,180,11.0,-999.0,61,-99.99,,,0.00,Acu-Link.com,2013-07-15 18:43:00,
2013-07-15 12:58:00,73.8,58.0,30.01,East,90,11.0,-999.0,58,-99.99,,,0.00,Acu-Link.com,2013-07-15 18:58:00,
2013-07-15 13:14:00,73.0,57.8,30.00,SSE,157,11.4,-999.0,59,-99.99,,,0.00,Acu-Link.com,2013-07-15 19:14:00,
2013-07-15 13:29:00,73.2,57.5,30.01,South,180,6.3,-999.0,58,-99.99,,,0.00,Acu-Link.com,2013-07-15 19:29:00,
2013-07-15 13:44:00,73.2,57.1,30.01,SSE,157,9.8,-999.0,57,-99.99,,,0.00,Acu-Link.com,2013-07-15 19:44:00,
2013-07-15 13:59:00,73.9,57.2,30.01,SSE,157,5.8,-999.0,56,-99.99,,,0.00,Acu-Link.com,2013-07-15 19:59:00,
2013-07-15 14:14:00,74.7,56.4,30.00,ESE,112,8.9,-999.0,53,-99.99,,,0.00,Acu-Link.com,2013-07-15 20:14:00,
2013-07-15 14:30:00,74.5,57.2,30.00,SSE,157,9.4,-999.0,55,-99.99,,,0.00,Acu-Link.com,2013-07-15 20:30:00,
2013-07-15 14:45:00,77.5,56.9,29.99,South,180,7.4,-999.0,49,-99.99,,,0.00,Acu-Link.com,2013-07-15 20:45:00,
2013-07-15 15:00:00,79.5,57.5,29.99,SE,135,7.8,-999.0,47,-99.99,,,0.00,Acu-Link.com,2013-07-15 21:00:00,
2013-07-15 15:15:00,78.3,55.2,29.98,East,90,6.7,-999.0,45,-99.99,,,0.00,Acu-Link.com,2013-07-15 21:15:00,
2013-07-15 15:31:00,77.5,55.7,29.98,ENE,67,7.4,-999.0,47,-99.99,,,0.00,Acu-Link.com,2013-07-15 21:31:00,
2013-07-15 15:46:00,75.6,54.5,29.98,East,90,10.3,-999.0,48,-99.99,,,0.00,Acu-Link.com,2013-07-15 21:46:00,
2013-07-15 16:01:00,74.3,53.9,29.98,ESE,112,3.8,-999.0,49,-99.99,,,0.00,Acu-Link.com,2013-07-15 22:01:00,
2013-07-15 16:16:00,74.8,53.8,29.97,South,180,5.1,-999.0,48,-99.99,,,0.00,Acu-Link.com,2013-07-15 22:16:00,
2013-07-15 16:31:00,73.9,53.6,29.96,ESE,112,8.3,-999.0,49,-99.99,,,0.00,Acu-Link.com,2013-07-15 22:31:00,
2013-07-15 16:47:00,73.0,53.8,29.96,SSE,157,4.3,-999.0,51,-99.99,,,0.00,Acu-Link.com,2013-07-15 22:47:00,
2013-07-15 17:02:00,72.3,53.7,29.96,ESE,112,8.9,-999.0,52,-99.99,,,0.00,Acu-Link.com,2013-07-15 23:02:00,
2013-07-15 17:17:00,71.8,53.7,29.96,SSE,157,11.0,-999.0,53,-99.99,,,0.00,Acu-Link.com,2013-07-15 23:17:00,
2013-07-15 17:32:00,71.8,54.2,29.96,ENE,67,7.8,-999.0,54,-99.99,,,0.00,Acu-Link.com,2013-07-15 23:32:00,
2013-07-15 17:47:00,71.6,53.6,29.96,South,180,6.3,-999.0,53,-99.99,,,0.00,Acu-Link.com,2013-07-15 23:47:00,
2013-07-15 18:18:00,71.4,53.4,29.97,SE,135,3.1,-999.0,53,-99.99,,,0.00,Acu-Link.com,2013-07-16 00:18:00,
2013-07-15 18:33:00,71.4,53.4,29.97,SW,225,3.8,-999.0,53,-99.99,,,0.00,Acu-Link.com,2013-07-16 00:33:00,
2013-07-15 18:48:00,71.2,53.2,29.97,SSE,157,7.8,-999.0,53,-99.99,,,0.00,Acu-Link.com,2013-07-16 00:48:00,
2013-07-15 19:19:00,71.1,53.1,29.97,ESE,112,3.1,-999.0,53,-99.99,,,0.00,Acu-Link.com,2013-07-16 01:19:00,
2013-07-15 19:34:00,70.9,53.4,29.97,ESE,112,4.3,-999.0,54,-99.99,,,0.00,Acu-Link.com,2013-07-16 01:34:00,
2013-07-15 19:49:00,70.5,52.6,29.98,SE,135,5.8,-999.0,53,-99.99,,,0.00,Acu-Link.com,2013-07-16 01:49:00,
2013-07-15 20:04:00,70.3,52.4,29.98,ESE,112,5.8,-999.0,53,-99.99,,,0.00,Acu-Link.com,2013-07-16 02:04:00,
2013-07-15 20:35:00,69.8,52.4,29.99,ESE,112,4.7,-999.0,54,-99.99,,,0.00,Acu-Link.com,2013-07-16 02:35:00,
2013-07-15 20:50:00,69.4,52.1,29.99,South,180,3.8,-999.0,54,-99.99,,,0.00,Acu-Link.com,2013-07-16 02:50:00,
2013-07-15 21:05:00,69.1,51.7,29.99,SSE,157,3.8,-999.0,54,-99.99,,,0.00,Acu-Link.com,2013-07-16 03:05:00,
2013-07-15 21:20:00,68.4,51.6,30.00,East,90,5.1,-999.0,55,-99.99,,,0.00,Acu-Link.com,2013-07-16 03:20:00,
2013-07-15 21:36:00,68.4,51.6,30.00,ESE,112,4.3,-999.0,55,-99.99,,,0.00,Acu-Link.com,2013-07-16 03:36:00,
2013-07-15 21:51:00,68.0,51.2,30.01,ENE,67,5.1,-999.0,55,-99.99,,,0.00,Acu-Link.com,2013-07-16 03:51:00,
2013-07-15 22:06:00,67.8,51.5,30.02,ESE,112,2.2,-999.0,56,-99.99,,,0.00,Acu-Link.com,2013-07-16 04:06:00,
2013-07-15 22:21:00,67.3,51.0,30.02,SSE,157,2.7,-999.0,56,-99.99,,,0.00,Acu-Link.com,2013-07-16 04:21:00,
2013-07-15 22:36:00,67.3,51.0,30.02,South,180,5.8,-999.0,56,-99.99,,,0.00,Acu-Link.com,2013-07-16 04:36:00,
2013-07-15 22:52:00,67.3,51.0,30.03,ESE,112,1.1,-999.0,56,-99.99,,,0.00,Acu-Link.com,2013-07-16 04:52:00,
2013-07-15 23:07:00,67.3,51.0,30.04,ENE,67,4.3,-999.0,56,-99.99,,,0.00,Acu-Link.com,2013-07-16 05:07:00,
2013-07-15 23:22:00,67.3,50.6,30.04,SE,135,3.8,-999.0,55,-99.99,,,0.00,Acu-Link.com,2013-07-16 05:22:00,
2013-07-15 23:37:00,67.3,50.6,30.04,East,90,7.8,-999.0,55,-99.99,,,0.00,Acu-Link.com,2013-07-16 05:37:00,
2013-07-15 23:52:00,67.3,50.6,30.04,ESE,112,2.2,-999.0,55,-99.99,,,0.00,Acu-Link.com,2013-07-16 05:52:00,